sensor_id;sensor_type;location;lat;lon;timestamp;temperature;humidity
24252;DHT22;12380;51.118;4.176;2022-11-15T00:00:20;10.50;99.90
24252;DHT22;12380;51.118;4.176;2022-11-15T00:02:45;10.60;99.90
24252;DHT22;12380;51.118;4.176;2022-11-15T01:43:36;11.40;99.90
24252;DHT22;12380;51.118;4.176;2022-11-15T01:46:23;11.40;99.90
24252;DHT22;12380;51.118;4.176;2022-11-15T01:48:52;11.50;99.90
24252;DHT22;12380;51.118;4.176;2022-11-15T01:51:20;11.50;99.90
24252;DHT22;12380;51.118;4.176;2022-11-15T01:53:50;11.50;99.90
24252;DHT22;12380;51.118;4.176;2022-11-15T01:56:23;11.60;99.90
24252;DHT22;12380;51.118;4.176;2022-11-15T01:58:52;11.70;99.90
24252;DHT22;12380;51.118;4.176;2022-11-15T02:01:19;11.70;99.90
24252;DHT22;12380;51.118;4.176;2022-11-15T02:03:59;11.60;99.90
24252;DHT22;12380;51.118;4.176;2022-11-15T02:06:28;11.70;99.90
24252;DHT22;12380;51.118;4.176;2022-11-15T02:08:54;11.70;99.90
24252;DHT22;12380;51.118;4.176;2022-11-15T02:11:22;11.60;99.90
24252;DHT22;12380;51.118;4.176;2022-11-15T02:13:48;11.60;99.90
24252;DHT22;12380;51.118;4.176;2022-11-15T02:27:59;11.60;99.90
24252;DHT22;12380;51.118;4.176;2022-11-15T02:36:02;11.70;99.90
24252;DHT22;12380;51.118;4.176;2022-11-15T02:42:07;11.70;99.90
24252;DHT22;12380;51.118;4.176;2022-11-15T02:44:59;11.50;99.90
24252;DHT22;12380;51.118;4.176;2022-11-15T02:47:33;11.50;99.90
24252;DHT22;12380;51.118;4.176;2022-11-15T02:50:10;11.60;99.90
24252;DHT22;12380;51.118;4.176;2022-11-15T02:52:39;11.60;99.90
24252;DHT22;12380;51.118;4.176;2022-11-15T03:04:08;11.50;99.90
24252;DHT22;12380;51.118;4.176;2022-11-15T03:07:01;11.60;99.90
24252;DHT22;12380;51.118;4.176;2022-11-15T03:09:41;11.60;99.90
24252;DHT22;12380;51.118;4.176;2022-11-15T03:12:18;11.50;99.90
24252;DHT22;12380;51.118;4.176;2022-11-15T03:15:02;11.40;99.90
24252;DHT22;12380;51.118;4.176;2022-11-15T03:17:34;11.50;99.90
24252;DHT22;12380;51.118;4.176;2022-11-15T03:20:04;11.60;99.90
24252;DHT22;12380;51.118;4.176;2022-11-15T03:22:39;11.50;99.90
24252;DHT22;12380;51.118;4.176;2022-11-15T03:25:10;11.50;99.90
24252;DHT22;12380;51.118;4.176;2022-11-15T03:27:43;11.60;99.90
24252;DHT22;12380;51.118;4.176;2022-11-15T03:30:10;11.50;99.90
24252;DHT22;12380;51.118;4.176;2022-11-15T03:32:41;11.40;99.90
24252;DHT22;12380;51.118;4.176;2022-11-15T03:35:23;11.40;99.90
24252;DHT22;12380;51.118;4.176;2022-11-15T03:41:05;11.40;99.90
24252;DHT22;12380;51.118;4.176;2022-11-15T03:43:52;11.40;99.90
24252;DHT22;12380;51.118;4.176;2022-11-15T03:46:32;11.40;99.90
24252;DHT22;12380;51.118;4.176;2022-11-15T03:49:10;11.40;99.90
24252;DHT22;12380;51.118;4.176;2022-11-15T03:51:37;11.30;99.90
24252;DHT22;12380;51.118;4.176;2022-11-15T03:54:04;11.40;99.90
24252;DHT22;12380;51.118;4.176;2022-11-15T03:56:30;11.30;99.90
24252;DHT22;12380;51.118;4.176;2022-11-15T03:58:57;11.30;99.90
24252;DHT22;12380;51.118;4.176;2022-11-15T04:01:22;11.30;99.90
24252;DHT22;12380;51.118;4.176;2022-11-15T04:03:48;11.30;99.90
24252;DHT22;12380;51.118;4.176;2022-11-15T04:06:15;11.20;99.90
24252;DHT22;12380;51.118;4.176;2022-11-15T04:08:41;11.20;99.90
24252;DHT22;12380;51.118;4.176;2022-11-15T04:11:06;11.20;99.90
24252;DHT22;12380;51.118;4.176;2022-11-15T04:13:32;11.20;99.90
24252;DHT22;12380;51.118;4.176;2022-11-15T04:15:58;11.20;99.90
24252;DHT22;12380;51.118;4.176;2022-11-15T04:18:24;11.20;99.90
24252;DHT22;12380;51.118;4.176;2022-11-15T04:20:50;11.00;99.90
24252;DHT22;12380;51.118;4.176;2022-11-15T04:23:35;11.00;99.90
24252;DHT22;12380;51.118;4.176;2022-11-15T04:26:21;11.00;99.90
24252;DHT22;12380;51.118;4.176;2022-11-15T04:28:47;11.10;99.90
24252;DHT22;12380;51.118;4.176;2022-11-15T04:31:34;10.90;99.90
24252;DHT22;12380;51.118;4.176;2022-11-15T04:34:02;11.00;99.90
24252;DHT22;12380;51.118;4.176;2022-11-15T04:36:28;11.00;99.90
24252;DHT22;12380;51.118;4.176;2022-11-15T04:39:12;11.00;99.90
24252;DHT22;12380;51.118;4.176;2022-11-15T04:41:38;10.90;99.90
24252;DHT22;12380;51.118;4.176;2022-11-15T04:44:03;10.90;99.90
24252;DHT22;12380;51.118;4.176;2022-11-15T04:46:30;10.90;99.90
24252;DHT22;12380;51.118;4.176;2022-11-15T04:48:56;10.80;99.90
24252;DHT22;12380;51.118;4.176;2022-11-15T04:51:21;10.90;99.90
24252;DHT22;12380;51.118;4.176;2022-11-15T04:53:48;10.90;99.90
24252;DHT22;12380;51.118;4.176;2022-11-15T04:56:16;10.90;99.90
24252;DHT22;12380;51.118;4.176;2022-11-15T04:58:42;10.90;99.90
24252;DHT22;12380;51.118;4.176;2022-11-15T05:01:13;10.80;99.90
24252;DHT22;12380;51.118;4.176;2022-11-15T05:03:44;10.80;99.90
24252;DHT22;12380;51.118;4.176;2022-11-15T05:06:29;10.70;99.90
24252;DHT22;12380;51.118;4.176;2022-11-15T05:08:58;10.60;99.90
24252;DHT22;12380;51.118;4.176;2022-11-15T05:11:27;10.60;99.90
24252;DHT22;12380;51.118;4.176;2022-11-15T05:13:53;10.50;99.90
24252;DHT22;12380;51.118;4.176;2022-11-15T05:16:19;10.60;99.90
24252;DHT22;12380;51.118;4.176;2022-11-15T05:18:44;10.50;99.90
24252;DHT22;12380;51.118;4.176;2022-11-15T05:21:17;10.40;99.90
24252;DHT22;12380;51.118;4.176;2022-11-15T05:23:46;10.30;99.90
24252;DHT22;12380;51.118;4.176;2022-11-15T05:26:12;10.30;99.90
24252;DHT22;12380;51.118;4.176;2022-11-15T05:28:38;10.20;99.90
24252;DHT22;12380;51.118;4.176;2022-11-15T05:31:06;10.20;99.90
24252;DHT22;12380;51.118;4.176;2022-11-15T05:33:31;10.20;99.90
24252;DHT22;12380;51.118;4.176;2022-11-15T05:38:45;10.10;99.90
24252;DHT22;12380;51.118;4.176;2022-11-15T05:41:12;10.00;99.90
24252;DHT22;12380;51.118;4.176;2022-11-15T05:43:39;10.00;99.90
24252;DHT22;12380;51.118;4.176;2022-11-15T05:46:05;10.00;99.90
24252;DHT22;12380;51.118;4.176;2022-11-15T05:48:32;10.00;99.90
24252;DHT22;12380;51.118;4.176;2022-11-15T05:51:00;9.90;99.90
24252;DHT22;12380;51.118;4.176;2022-11-15T05:53:27;9.90;99.90
24252;DHT22;12380;51.118;4.176;2022-11-15T05:55:52;10.00;99.90
24252;DHT22;12380;51.118;4.176;2022-11-15T05:58:19;9.90;99.90
24252;DHT22;12380;51.118;4.176;2022-11-15T06:00:46;9.90;99.90
24252;DHT22;12380;51.118;4.176;2022-11-15T06:03:14;9.90;99.90
24252;DHT22;12380;51.118;4.176;2022-11-15T06:05:42;9.80;99.90
24252;DHT22;12380;51.118;4.176;2022-11-15T06:08:08;9.80;99.90
24252;DHT22;12380;51.118;4.176;2022-11-15T06:10:34;9.90;99.90
24252;DHT22;12380;51.118;4.176;2022-11-15T06:13:02;9.90;99.90
24252;DHT22;12380;51.118;4.176;2022-11-15T06:15:28;9.90;99.90
24252;DHT22;12380;51.118;4.176;2022-11-15T06:18:00;9.80;99.90
24252;DHT22;12380;51.118;4.176;2022-11-15T06:20:27;9.70;99.90
24252;DHT22;12380;51.118;4.176;2022-11-15T06:22:58;9.80;99.90
24252;DHT22;12380;51.118;4.176;2022-11-15T06:25:25;9.90;99.90
24252;DHT22;12380;51.118;4.176;2022-11-15T06:27:52;9.90;99.90
24252;DHT22;12380;51.118;4.176;2022-11-15T06:30:22;9.90;99.90
24252;DHT22;12380;51.118;4.176;2022-11-15T06:32:48;9.90;99.90
24252;DHT22;12380;51.118;4.176;2022-11-15T06:35:17;10.00;99.90
24252;DHT22;12380;51.118;4.176;2022-11-15T06:37:43;9.90;99.90
24252;DHT22;12380;51.118;4.176;2022-11-15T06:40:10;9.90;99.90
24252;DHT22;12380;51.118;4.176;2022-11-15T06:42:38;9.90;99.90
24252;DHT22;12380;51.118;4.176;2022-11-15T06:45:05;9.90;99.90
24252;DHT22;12380;51.118;4.176;2022-11-15T06:47:31;9.90;99.90
24252;DHT22;12380;51.118;4.176;2022-11-15T06:49:57;9.80;99.90
24252;DHT22;12380;51.118;4.176;2022-11-15T06:52:25;9.90;99.90
24252;DHT22;12380;51.118;4.176;2022-11-15T06:54:51;9.90;99.90
24252;DHT22;12380;51.118;4.176;2022-11-15T06:57:17;9.90;99.90
24252;DHT22;12380;51.118;4.176;2022-11-15T06:59:42;9.90;99.90
24252;DHT22;12380;51.118;4.176;2022-11-15T07:02:13;9.80;99.90
24252;DHT22;12380;51.118;4.176;2022-11-15T07:04:39;9.70;99.90
24252;DHT22;12380;51.118;4.176;2022-11-15T07:07:07;9.60;99.90
24252;DHT22;12380;51.118;4.176;2022-11-15T07:09:32;9.60;99.90
24252;DHT22;12380;51.118;4.176;2022-11-15T07:11:58;9.60;99.90
24252;DHT22;12380;51.118;4.176;2022-11-15T07:14:23;9.60;99.90
24252;DHT22;12380;51.118;4.176;2022-11-15T07:16:49;9.70;99.90
24252;DHT22;12380;51.118;4.176;2022-11-15T07:19:15;9.60;99.90
24252;DHT22;12380;51.118;4.176;2022-11-15T07:21:40;9.50;99.90
24252;DHT22;12380;51.118;4.176;2022-11-15T07:24:06;9.50;99.90
24252;DHT22;12380;51.118;4.176;2022-11-15T07:26:32;9.60;99.90
24252;DHT22;12380;51.118;4.176;2022-11-15T07:28:57;9.70;99.90
24252;DHT22;12380;51.118;4.176;2022-11-15T07:31:23;9.70;99.90
24252;DHT22;12380;51.118;4.176;2022-11-15T07:33:51;9.60;99.90
24252;DHT22;12380;51.118;4.176;2022-11-15T07:36:19;9.50;99.90
24252;DHT22;12380;51.118;4.176;2022-11-15T07:38:45;9.50;99.90
24252;DHT22;12380;51.118;4.176;2022-11-15T07:41:12;9.60;99.90
24252;DHT22;12380;51.118;4.176;2022-11-15T07:43:37;9.70;99.90
24252;DHT22;12380;51.118;4.176;2022-11-15T07:46:05;9.70;99.90
24252;DHT22;12380;51.118;4.176;2022-11-15T07:48:37;9.80;99.90
24252;DHT22;12380;51.118;4.176;2022-11-15T07:51:06;9.70;99.90
24252;DHT22;12380;51.118;4.176;2022-11-15T07:53:32;9.70;99.90
24252;DHT22;12380;51.118;4.176;2022-11-15T07:55:58;9.70;99.90
24252;DHT22;12380;51.118;4.176;2022-11-15T07:58:24;9.60;99.90
24252;DHT22;12380;51.118;4.176;2022-11-15T08:00:50;9.60;99.90
24252;DHT22;12380;51.118;4.176;2022-11-15T08:03:17;9.70;99.90
24252;DHT22;12380;51.118;4.176;2022-11-15T08:05:49;9.90;99.90
24252;DHT22;12380;51.118;4.176;2022-11-15T08:08:15;10.20;99.90
24252;DHT22;12380;51.118;4.176;2022-11-15T08:10:41;10.60;99.90
24252;DHT22;12380;51.118;4.176;2022-11-15T08:13:10;11.00;99.90
24252;DHT22;12380;51.118;4.176;2022-11-15T08:15:36;11.10;99.90
24252;DHT22;12380;51.118;4.176;2022-11-15T08:18:04;11.30;99.90
24252;DHT22;12380;51.118;4.176;2022-11-15T08:20:33;11.40;99.90
24252;DHT22;12380;51.118;4.176;2022-11-15T08:23:03;11.40;99.90
24252;DHT22;12380;51.118;4.176;2022-11-15T08:25:33;11.20;99.90
24252;DHT22;12380;51.118;4.176;2022-11-15T08:28:03;11.00;99.90
24252;DHT22;12380;51.118;4.176;2022-11-15T08:30:30;10.90;99.90
24252;DHT22;12380;51.118;4.176;2022-11-15T08:32:58;10.70;99.90
24252;DHT22;12380;51.118;4.176;2022-11-15T08:35:24;10.80;99.90
24252;DHT22;12380;51.118;4.176;2022-11-15T08:37:53;10.70;99.90
24252;DHT22;12380;51.118;4.176;2022-11-15T08:40:19;10.70;99.90
24252;DHT22;12380;51.118;4.176;2022-11-15T08:42:48;10.60;99.90
24252;DHT22;12380;51.118;4.176;2022-11-15T08:45:16;10.60;99.90
24252;DHT22;12380;51.118;4.176;2022-11-15T08:47:41;10.80;99.90
24252;DHT22;12380;51.118;4.176;2022-11-15T08:50:07;11.00;99.90
24252;DHT22;12380;51.118;4.176;2022-11-15T08:52:33;11.40;99.90
24252;DHT22;12380;51.118;4.176;2022-11-15T08:55:02;11.40;99.90
24252;DHT22;12380;51.118;4.176;2022-11-15T08:57:29;11.50;99.90
24252;DHT22;12380;51.118;4.176;2022-11-15T08:59:55;11.50;99.90
24252;DHT22;12380;51.118;4.176;2022-11-15T09:02:21;11.70;99.90
24252;DHT22;12380;51.118;4.176;2022-11-15T09:04:47;12.20;99.90
24252;DHT22;12380;51.118;4.176;2022-11-15T09:07:14;12.60;99.90
24252;DHT22;12380;51.118;4.176;2022-11-15T09:09:39;12.20;99.90
24252;DHT22;12380;51.118;4.176;2022-11-15T09:12:08;11.90;99.90
24252;DHT22;12380;51.118;4.176;2022-11-15T09:14:34;12.20;99.90
24252;DHT22;12380;51.118;4.176;2022-11-15T09:17:00;12.30;99.90
24252;DHT22;12380;51.118;4.176;2022-11-15T09:19:27;12.50;99.90
24252;DHT22;12380;51.118;4.176;2022-11-15T09:21:53;12.90;99.90
24252;DHT22;12380;51.118;4.176;2022-11-15T09:24:19;12.80;99.90
24252;DHT22;12380;51.118;4.176;2022-11-15T09:26:45;13.10;99.90
24252;DHT22;12380;51.118;4.176;2022-11-15T09:29:11;13.00;99.90
24252;DHT22;12380;51.118;4.176;2022-11-15T09:31:37;12.70;99.90
24252;DHT22;12380;51.118;4.176;2022-11-15T09:34:02;12.90;99.90
24252;DHT22;12380;51.118;4.176;2022-11-15T09:36:28;13.10;99.90
24252;DHT22;12380;51.118;4.176;2022-11-15T09:38:54;13.00;99.90
24252;DHT22;12380;51.118;4.176;2022-11-15T09:41:34;12.80;99.90
24252;DHT22;12380;51.118;4.176;2022-11-15T09:50:16;13.30;99.90
24252;DHT22;12380;51.118;4.176;2022-11-15T09:52:44;13.30;99.90
24252;DHT22;12380;51.118;4.176;2022-11-15T09:55:12;13.60;99.90
24252;DHT22;12380;51.118;4.176;2022-11-15T09:57:47;13.50;99.90
24252;DHT22;12380;51.118;4.176;2022-11-15T10:00:40;13.60;99.90
24252;DHT22;12380;51.118;4.176;2022-11-15T10:03:15;13.70;99.90
24252;DHT22;12380;51.118;4.176;2022-11-15T10:05:50;13.90;99.90
24252;DHT22;12380;51.118;4.176;2022-11-15T10:10:56;13.40;99.90
24252;DHT22;12380;51.118;4.176;2022-11-15T10:13:28;13.60;99.90
24252;DHT22;12380;51.118;4.176;2022-11-15T10:23:50;13.00;99.90
24252;DHT22;12380;51.118;4.176;2022-11-15T10:26:17;12.70;99.90
24252;DHT22;12380;51.118;4.176;2022-11-15T10:28:44;12.70;99.90
24252;DHT22;12380;51.118;4.176;2022-11-15T10:31:27;12.70;99.90
24252;DHT22;12380;51.118;4.176;2022-11-15T10:34:18;12.80;99.90
24252;DHT22;12380;51.118;4.176;2022-11-15T10:36:57;12.90;99.90
24252;DHT22;12380;51.118;4.176;2022-11-15T10:39:24;12.80;99.90
24252;DHT22;12380;51.118;4.176;2022-11-15T10:41:52;13.00;99.90
24252;DHT22;12380;51.118;4.176;2022-11-15T10:44:28;13.10;99.90
24252;DHT22;12380;51.118;4.176;2022-11-15T10:49:28;12.70;99.90
24252;DHT22;12380;51.118;4.176;2022-11-15T10:51:59;12.80;99.90
24252;DHT22;12380;51.118;4.176;2022-11-15T10:54:42;12.70;99.90
24252;DHT22;12380;51.118;4.176;2022-11-15T10:57:15;12.60;99.90
24252;DHT22;12380;51.118;4.176;2022-11-15T10:59:49;12.60;99.90
24252;DHT22;12380;51.118;4.176;2022-11-15T11:05:03;12.50;99.90
24252;DHT22;12380;51.118;4.176;2022-11-15T11:07:32;12.70;99.90
24252;DHT22;12380;51.118;4.176;2022-11-15T11:12:34;12.90;99.90
24252;DHT22;12380;51.118;4.176;2022-11-15T11:15:05;13.00;99.90
24252;DHT22;12380;51.118;4.176;2022-11-15T11:20:40;13.20;99.90
24252;DHT22;12380;51.118;4.176;2022-11-15T11:26:20;13.80;99.90
24252;DHT22;12380;51.118;4.176;2022-11-15T11:37:10;13.10;99.90
24252;DHT22;12380;51.118;4.176;2022-11-15T11:48:02;13.10;99.90
24252;DHT22;12380;51.118;4.176;2022-11-15T11:50:36;13.20;99.90
24252;DHT22;12380;51.118;4.176;2022-11-15T11:53:15;13.30;99.90
24252;DHT22;12380;51.118;4.176;2022-11-15T11:56:31;13.20;99.90
24252;DHT22;12380;51.118;4.176;2022-11-15T11:58:41;13.20;99.90
24252;DHT22;12380;51.118;4.176;2022-11-15T12:03:41;13.20;99.90
24252;DHT22;12380;51.118;4.176;2022-11-15T12:06:42;13.30;99.90
24252;DHT22;12380;51.118;4.176;2022-11-15T12:15:01;13.00;99.90
24252;DHT22;12380;51.118;4.176;2022-11-15T12:17:32;13.00;99.90
24252;DHT22;12380;51.118;4.176;2022-11-15T12:20:03;12.90;99.90
24252;DHT22;12380;51.118;4.176;2022-11-15T12:22:39;12.90;99.90
24252;DHT22;12380;51.118;4.176;2022-11-15T12:25:54;13.00;99.90
24252;DHT22;12380;51.118;4.176;2022-11-15T12:28:35;13.00;99.90
24252;DHT22;12380;51.118;4.176;2022-11-15T12:33:46;13.00;99.90
24252;DHT22;12380;51.118;4.176;2022-11-15T12:41:22;12.90;99.90
24252;DHT22;12380;51.118;4.176;2022-11-15T12:43:49;12.90;99.90
24252;DHT22;12380;51.118;4.176;2022-11-15T13:02:22;13.10;99.90
24252;DHT22;12380;51.118;4.176;2022-11-15T13:04:54;13.10;99.90
24252;DHT22;12380;51.118;4.176;2022-11-15T13:12:56;13.30;99.90
24252;DHT22;12380;51.118;4.176;2022-11-15T13:15:59;13.20;99.90
24252;DHT22;12380;51.118;4.176;2022-11-15T13:18:35;13.20;99.90
24252;DHT22;12380;51.118;4.176;2022-11-15T13:21:02;13.20;99.90
24252;DHT22;12380;51.118;4.176;2022-11-15T13:23:53;13.30;99.90
24252;DHT22;12380;51.118;4.176;2022-11-15T13:26:21;13.30;99.90
24252;DHT22;12380;51.118;4.176;2022-11-15T13:28:49;13.30;99.90
24252;DHT22;12380;51.118;4.176;2022-11-15T13:33:59;13.30;99.90
24252;DHT22;12380;51.118;4.176;2022-11-15T13:36:31;13.30;99.90
24252;DHT22;12380;51.118;4.176;2022-11-15T13:39:14;13.20;99.90
24252;DHT22;12380;51.118;4.176;2022-11-15T13:41:50;13.10;99.90
24252;DHT22;12380;51.118;4.176;2022-11-15T13:44:26;13.10;99.90
24252;DHT22;12380;51.118;4.176;2022-11-15T13:47:18;13.10;99.90
24252;DHT22;12380;51.118;4.176;2022-11-15T13:49:47;13.20;99.90
24252;DHT22;12380;51.118;4.176;2022-11-15T13:52:15;13.20;99.90
24252;DHT22;12380;51.118;4.176;2022-11-15T13:57:23;13.20;99.90
24252;DHT22;12380;51.118;4.176;2022-11-15T13:59:52;13.20;99.90
24252;DHT22;12380;51.118;4.176;2022-11-15T14:02:35;13.10;99.90
24252;DHT22;12380;51.118;4.176;2022-11-15T14:05:19;13.10;99.90
24252;DHT22;12380;51.118;4.176;2022-11-15T14:08:03;13.10;99.90
24252;DHT22;12380;51.118;4.176;2022-11-15T14:10:35;13.10;99.90
24252;DHT22;12380;51.118;4.176;2022-11-15T14:13:03;13.30;99.90
24252;DHT22;12380;51.118;4.176;2022-11-15T14:15:33;13.20;99.90
24252;DHT22;12380;51.118;4.176;2022-11-15T14:18:00;13.00;99.90
24252;DHT22;12380;51.118;4.176;2022-11-15T14:23:19;13.10;99.90
24252;DHT22;12380;51.118;4.176;2022-11-15T14:25:59;13.10;99.90
24252;DHT22;12380;51.118;4.176;2022-11-15T14:30:53;13.00;99.90
24252;DHT22;12380;51.118;4.176;2022-11-15T14:33:32;12.90;99.90
24252;DHT22;12380;51.118;4.176;2022-11-15T14:36:11;12.90;99.90
24252;DHT22;12380;51.118;4.176;2022-11-15T14:38:37;12.80;99.90
24252;DHT22;12380;51.118;4.176;2022-11-15T14:41:09;12.80;99.90
24252;DHT22;12380;51.118;4.176;2022-11-15T14:43:36;12.70;99.90
24252;DHT22;12380;51.118;4.176;2022-11-15T14:46:02;12.70;99.90
24252;DHT22;12380;51.118;4.176;2022-11-15T14:48:29;12.70;99.90
24252;DHT22;12380;51.118;4.176;2022-11-15T14:50:57;12.70;99.90
24252;DHT22;12380;51.118;4.176;2022-11-15T14:53:23;12.70;99.90
24252;DHT22;12380;51.118;4.176;2022-11-15T14:55:49;12.60;99.90
24252;DHT22;12380;51.118;4.176;2022-11-15T14:58:17;12.60;99.90
24252;DHT22;12380;51.118;4.176;2022-11-15T15:00:44;12.40;99.90
24252;DHT22;12380;51.118;4.176;2022-11-15T15:03:10;12.40;99.90
24252;DHT22;12380;51.118;4.176;2022-11-15T15:05:40;12.30;99.90
24252;DHT22;12380;51.118;4.176;2022-11-15T15:08:06;12.30;99.90
24252;DHT22;12380;51.118;4.176;2022-11-15T15:10:36;12.20;99.90
24252;DHT22;12380;51.118;4.176;2022-11-15T15:13:05;12.20;99.90
24252;DHT22;12380;51.118;4.176;2022-11-15T15:15:36;12.10;99.90
24252;DHT22;12380;51.118;4.176;2022-11-15T15:18:03;12.10;99.90
24252;DHT22;12380;51.118;4.176;2022-11-15T15:20:33;12.00;99.90
24252;DHT22;12380;51.118;4.176;2022-11-15T15:23:01;12.10;99.90
24252;DHT22;12380;51.118;4.176;2022-11-15T15:25:27;12.10;99.90
24252;DHT22;12380;51.118;4.176;2022-11-15T15:27:54;12.10;99.90
24252;DHT22;12380;51.118;4.176;2022-11-15T15:30:22;12.10;99.90
24252;DHT22;12380;51.118;4.176;2022-11-15T15:32:48;12.00;99.90
24252;DHT22;12380;51.118;4.176;2022-11-15T15:35:14;12.00;99.90
24252;DHT22;12380;51.118;4.176;2022-11-15T15:37:41;12.00;99.90
24252;DHT22;12380;51.118;4.176;2022-11-15T15:40:28;12.00;99.90
24252;DHT22;12380;51.118;4.176;2022-11-15T15:42:56;12.00;99.90
24252;DHT22;12380;51.118;4.176;2022-11-15T15:45:25;12.00;99.90
24252;DHT22;12380;51.118;4.176;2022-11-15T15:47:52;12.00;99.90
24252;DHT22;12380;51.118;4.176;2022-11-15T15:50:32;12.00;99.90
24252;DHT22;12380;51.118;4.176;2022-11-15T15:53:01;12.00;99.90
24252;DHT22;12380;51.118;4.176;2022-11-15T15:55:31;11.90;99.90
24252;DHT22;12380;51.118;4.176;2022-11-15T15:58:00;11.90;99.90
24252;DHT22;12380;51.118;4.176;2022-11-15T16:00:25;11.80;99.90
24252;DHT22;12380;51.118;4.176;2022-11-15T16:02:52;11.90;99.90
24252;DHT22;12380;51.118;4.176;2022-11-15T16:05:19;11.80;99.90
24252;DHT22;12380;51.118;4.176;2022-11-15T16:07:45;11.90;99.90
24252;DHT22;12380;51.118;4.176;2022-11-15T16:10:19;11.90;99.90
24252;DHT22;12380;51.118;4.176;2022-11-15T16:12:45;11.90;99.90
24252;DHT22;12380;51.118;4.176;2022-11-15T16:15:14;11.90;99.90
24252;DHT22;12380;51.118;4.176;2022-11-15T16:20:37;11.90;99.90
24252;DHT22;12380;51.118;4.176;2022-11-15T16:23:07;11.80;99.90
24252;DHT22;12380;51.118;4.176;2022-11-15T16:25:41;11.90;99.90
24252;DHT22;12380;51.118;4.176;2022-11-15T16:28:20;11.90;99.90
24252;DHT22;12380;51.118;4.176;2022-11-15T16:30:49;11.90;99.90
24252;DHT22;12380;51.118;4.176;2022-11-15T16:33:26;11.90;99.90
24252;DHT22;12380;51.118;4.176;2022-11-15T16:35:52;11.90;99.90
24252;DHT22;12380;51.118;4.176;2022-11-15T16:38:23;11.90;99.90
24252;DHT22;12380;51.118;4.176;2022-11-15T16:40:49;11.90;99.90
24252;DHT22;12380;51.118;4.176;2022-11-15T16:43:16;12.00;99.90
24252;DHT22;12380;51.118;4.176;2022-11-15T16:45:41;11.90;99.90
24252;DHT22;12380;51.118;4.176;2022-11-15T16:50:47;12.00;99.90
24252;DHT22;12380;51.118;4.176;2022-11-15T16:53:15;12.00;99.90
24252;DHT22;12380;51.118;4.176;2022-11-15T16:55:43;12.20;99.90
24252;DHT22;12380;51.118;4.176;2022-11-15T16:58:09;12.10;99.90
24252;DHT22;12380;51.118;4.176;2022-11-15T17:00:38;12.10;99.90
24252;DHT22;12380;51.118;4.176;2022-11-15T17:03:08;12.10;99.90
24252;DHT22;12380;51.118;4.176;2022-11-15T17:05:36;12.10;99.90
24252;DHT22;12380;51.118;4.176;2022-11-15T17:08:03;12.00;99.90
24252;DHT22;12380;51.118;4.176;2022-11-15T17:10:29;12.00;99.90
24252;DHT22;12380;51.118;4.176;2022-11-15T17:12:55;12.10;99.90
24252;DHT22;12380;51.118;4.176;2022-11-15T17:15:21;12.00;99.90
24252;DHT22;12380;51.118;4.176;2022-11-15T17:17:53;12.00;99.90
24252;DHT22;12380;51.118;4.176;2022-11-15T17:20:22;12.00;99.90
24252;DHT22;12380;51.118;4.176;2022-11-15T17:22:48;12.00;99.90
24252;DHT22;12380;51.118;4.176;2022-11-15T17:25:17;12.10;99.90
24252;DHT22;12380;51.118;4.176;2022-11-15T17:27:43;12.10;99.90
24252;DHT22;12380;51.118;4.176;2022-11-15T17:30:13;12.10;99.90
24252;DHT22;12380;51.118;4.176;2022-11-15T17:32:45;12.00;99.90
24252;DHT22;12380;51.118;4.176;2022-11-15T17:35:14;12.10;99.90
24252;DHT22;12380;51.118;4.176;2022-11-15T17:37:40;12.00;99.90
24252;DHT22;12380;51.118;4.176;2022-11-15T17:40:06;12.00;99.90
24252;DHT22;12380;51.118;4.176;2022-11-15T17:42:34;12.10;99.90
24252;DHT22;12380;51.118;4.176;2022-11-15T17:45:02;12.10;99.90
24252;DHT22;12380;51.118;4.176;2022-11-15T17:47:31;12.10;99.90
24252;DHT22;12380;51.118;4.176;2022-11-15T17:49:59;12.10;99.90
24252;DHT22;12380;51.118;4.176;2022-11-15T17:52:25;12.10;99.90
24252;DHT22;12380;51.118;4.176;2022-11-15T17:54:51;12.10;99.90
24252;DHT22;12380;51.118;4.176;2022-11-15T17:57:17;12.10;99.90
24252;DHT22;12380;51.118;4.176;2022-11-15T17:59:43;12.10;99.90
24252;DHT22;12380;51.118;4.176;2022-11-15T18:02:11;12.10;99.90
24252;DHT22;12380;51.118;4.176;2022-11-15T18:04:36;12.00;99.90
24252;DHT22;12380;51.118;4.176;2022-11-15T18:07:03;12.00;99.90
24252;DHT22;12380;51.118;4.176;2022-11-15T18:09:29;12.00;99.90
24252;DHT22;12380;51.118;4.176;2022-11-15T18:11:57;12.10;99.90
24252;DHT22;12380;51.118;4.176;2022-11-15T18:14:23;12.00;99.90
24252;DHT22;12380;51.118;4.176;2022-11-15T18:16:50;12.00;99.90
24252;DHT22;12380;51.118;4.176;2022-11-15T18:19:19;12.00;99.90
24252;DHT22;12380;51.118;4.176;2022-11-15T18:21:45;12.00;99.90
24252;DHT22;12380;51.118;4.176;2022-11-15T18:24:25;12.00;99.90
24252;DHT22;12380;51.118;4.176;2022-11-15T18:26:51;12.00;99.90
24252;DHT22;12380;51.118;4.176;2022-11-15T18:29:18;12.00;99.90
24252;DHT22;12380;51.118;4.176;2022-11-15T18:31:44;12.00;99.90
24252;DHT22;12380;51.118;4.176;2022-11-15T18:34:10;12.00;99.90
24252;DHT22;12380;51.118;4.176;2022-11-15T18:36:37;12.10;99.90
24252;DHT22;12380;51.118;4.176;2022-11-15T18:39:04;12.10;99.90
24252;DHT22;12380;51.118;4.176;2022-11-15T18:41:33;12.10;99.90
24252;DHT22;12380;51.118;4.176;2022-11-15T18:44:01;12.10;99.90
24252;DHT22;12380;51.118;4.176;2022-11-15T18:46:29;12.10;99.90
24252;DHT22;12380;51.118;4.176;2022-11-15T18:48:58;12.10;99.90
24252;DHT22;12380;51.118;4.176;2022-11-15T18:51:26;12.10;99.90
24252;DHT22;12380;51.118;4.176;2022-11-15T18:53:58;12.10;99.90
24252;DHT22;12380;51.118;4.176;2022-11-15T18:56:28;12.10;99.90
24252;DHT22;12380;51.118;4.176;2022-11-15T18:58:57;12.10;99.90
24252;DHT22;12380;51.118;4.176;2022-11-15T19:01:26;12.10;99.90
24252;DHT22;12380;51.118;4.176;2022-11-15T19:03:54;12.10;99.90
24252;DHT22;12380;51.118;4.176;2022-11-15T19:06:23;12.10;99.90
24252;DHT22;12380;51.118;4.176;2022-11-15T19:08:52;12.10;99.90
24252;DHT22;12380;51.118;4.176;2022-11-15T19:11:28;12.20;99.90
24252;DHT22;12380;51.118;4.176;2022-11-15T19:14:02;12.40;99.90
24252;DHT22;12380;51.118;4.176;2022-11-15T19:16:33;12.30;99.90
24252;DHT22;12380;51.118;4.176;2022-11-15T19:19:06;12.30;99.90
24252;DHT22;12380;51.118;4.176;2022-11-15T19:21:33;12.30;99.90
24252;DHT22;12380;51.118;4.176;2022-11-15T19:24:02;12.30;99.90
24252;DHT22;12380;51.118;4.176;2022-11-15T19:26:30;12.40;99.90
24252;DHT22;12380;51.118;4.176;2022-11-15T19:28:58;12.40;99.90
24252;DHT22;12380;51.118;4.176;2022-11-15T19:31:28;12.40;99.90
24252;DHT22;12380;51.118;4.176;2022-11-15T19:33:54;12.40;99.90
24252;DHT22;12380;51.118;4.176;2022-11-15T19:36:23;12.40;99.90
24252;DHT22;12380;51.118;4.176;2022-11-15T19:38:51;12.50;99.90
24252;DHT22;12380;51.118;4.176;2022-11-15T19:41:22;12.50;99.90
24252;DHT22;12380;51.118;4.176;2022-11-15T19:43:48;12.50;99.90